Red Diamond — A8UM9 — position and weather

sailwx.info

Track history (hours):
 
Tides and Currents Weather Stations Pressure Air Temp Water Temp Dewpoint Dewpoint Depression Visibility Wind Speed Wind Dir Waves Ship Positions

Red Diamond

Last reported at 2016-Feb-16 23:32 UTC. Time now 2016-May-29 13:30 UTC.
Position N 01°10' E 103°37'.
Warning: this ship's position is months out of date.

Length 190 m; draft 7.6 m.

Type: Cargo ship. MMSI: 636014524.

Date/timePositionNaut miles runAvg speedWind from/ knotsBaromVisibWave heightAir tempDewpointWater temp
2016-Feb-16 23:32N 01°10' E 103°37'3 6.5
2016-Feb-16 23:08N 01°11' E 103°40'3 5.5
2016-Feb-16 22:32N 01°09' E 103°43'1 5.1
2016-Feb-16 22:18N 01°08' E 103°44'6 6.6
2016-Feb-16 21:26N 01°11' E 103°49'6 7.2
2016-Feb-16 20:33N 01°13' E 103°55'9 8.7
2016-Feb-16 19:32N 01°16' E 104°03'  
2016-Feb-08 17:24N 22°52' E 119°31'8 9.8
2016-Feb-08 16:33N 22°59' E 119°37'10 9.6
2016-Feb-08 15:33N 23°06' E 119°43'118 8.9
2016-Feb-08 02:21N 24°58' E 120°25'  
Track history (hours):
 
Tides and Currents Weather Stations Pressure Air Temp Water Temp Dewpoint Dewpoint Depression Visibility Wind Speed Wind Dir Waves Ship Positions

Red Diamond

Last reported at 2016-Feb-16 23:32 UTC. Time now 2016-May-29 13:30 UTC.
Position N 01°10' E 103°37'.
Warning: this ship's position is months out of date.

Length 190 m; draft 7.6 m.

Type: Cargo ship. MMSI: 636014524.

Date/timePositionNaut miles runAvg speedWind from/ knotsBaromVisibWave heightAir tempDewpointWater temp
2016-Feb-16 23:32N 01°10' E 103°37'3 6.5
2016-Feb-16 23:08N 01°11' E 103°40'3 5.5
2016-Feb-16 22:32N 01°09' E 103°43'1 5.1
2016-Feb-16 22:18N 01°08' E 103°44'6 6.6
2016-Feb-16 21:26N 01°11' E 103°49'6 7.2
2016-Feb-16 20:33N 01°13' E 103°55'9 8.7
2016-Feb-16 19:32N 01°16' E 104°03'  
2016-Feb-08 17:24N 22°52' E 119°31'8 9.8
2016-Feb-08 16:33N 22°59' E 119°37'10 9.6
2016-Feb-08 15:33N 23°06' E 119°43'118 8.9
2016-Feb-08 02:21N 24°58' E 120°25'  

Dump ship's entire track history